sensor_id;sensor_type;location;lat;lon;timestamp;pressure;altitude;pressure_sealevel;temperature;humidity
20424;BME280;10371;49.042;8.002;2023-04-20T00:00:26;99954.50;;;5.11;73.17
20424;BME280;10371;49.042;8.002;2023-04-20T00:01:27;99951.34;;;5.06;73.37
20424;BME280;10371;49.042;8.002;2023-04-20T00:02:27;99947.13;;;5.05;73.06
20424;BME280;10371;49.042;8.002;2023-04-20T00:03:27;99940.28;;;5.04;73.36
20424;BME280;10371;49.042;8.002;2023-04-20T00:04:28;99942.13;;;5.02;73.25
20424;BME280;10371;49.042;8.002;2023-04-20T00:05:29;99935.41;;;4.99;73.11
20424;BME280;10371;49.042;8.002;2023-04-20T00:06:30;99940.44;;;5.01;73.25
20424;BME280;10371;49.042;8.002;2023-04-20T00:07:33;99930.31;;;4.98;73.33
20424;BME280;10371;49.042;8.002;2023-04-20T00:08:34;99939.72;;;4.99;73.17
20424;BME280;10371;49.042;8.002;2023-04-20T00:09:35;99937.16;;;4.99;73.42
20424;BME280;10371;49.042;8.002;2023-04-20T00:10:35;99929.56;;;4.96;73.36
20424;BME280;10371;49.042;8.002;2023-04-20T00:11:35;99933.06;;;4.95;73.49
20424;BME280;10371;49.042;8.002;2023-04-20T00:12:36;99933.06;;;4.95;73.50
20424;BME280;10371;49.042;8.002;2023-04-20T00:13:36;99927.91;;;4.95;73.58
20424;BME280;10371;49.042;8.002;2023-04-20T00:14:36;99927.06;;;4.94;73.38
20424;BME280;10371;49.042;8.002;2023-04-20T00:15:37;99917.75;;;4.91;73.63
20424;BME280;10371;49.042;8.002;2023-04-20T00:16:37;99922.75;;;4.95;73.27
20424;BME280;10371;49.042;8.002;2023-04-20T00:17:37;99921.91;;;4.94;73.51
20424;BME280;10371;49.042;8.002;2023-04-20T00:18:38;99920.75;;;5.00;73.08
20424;BME280;10371;49.042;8.002;2023-04-20T00:19:39;99922.56;;;4.98;72.96
20424;BME280;10371;49.042;8.002;2023-04-20T00:20:40;99920.63;;;5.01;73.36
20424;BME280;10371;49.042;8.002;2023-04-20T00:21:40;99919.91;;;4.99;73.03
20424;BME280;10371;49.042;8.002;2023-04-20T00:22:40;99910.59;;;4.97;72.95
20424;BME280;10371;49.042;8.002;2023-04-20T00:23:40;99908.78;;;4.99;72.87
20424;BME280;10371;49.042;8.002;2023-04-20T00:24:41;99903.63;;;4.99;72.88
20424;BME280;10371;49.042;8.002;2023-04-20T00:25:41;99903.69;;;4.97;72.91
20424;BME280;10371;49.042;8.002;2023-04-20T00:26:41;99907.09;;;4.98;73.03
20424;BME280;10371;49.042;8.002;2023-04-20T00:27:43;99912.41;;;4.95;73.41
20424;BME280;10371;49.042;8.002;2023-04-20T00:28:43;99906.78;;;4.88;73.44
20424;BME280;10371;49.042;8.002;2023-04-20T00:29:44;99902.81;;;4.82;74.04
20424;BME280;10371;49.042;8.002;2023-04-20T00:30:44;99895.47;;;4.75;74.40
20424;BME280;10371;49.042;8.002;2023-04-20T00:31:44;99892.97;;;4.73;74.54
20424;BME280;10371;49.042;8.002;2023-04-20T00:32:45;99890.56;;;4.70;74.56
20424;BME280;10371;49.042;8.002;2023-04-20T00:33:46;99887.81;;;4.73;74.57
20424;BME280;10371;49.042;8.002;2023-04-20T00:34:47;99885.34;;;4.72;74.47
20424;BME280;10371;49.042;8.002;2023-04-20T00:35:47;99885.41;;;4.70;74.69
20424;BME280;10371;49.042;8.002;2023-04-20T00:36:48;99888.16;;;4.67;74.82
20424;BME280;10371;49.042;8.002;2023-04-20T00:37:48;99886.50;;;4.66;74.99
20424;BME280;10371;49.042;8.002;2023-04-20T00:38:48;99878.25;;;4.59;75.09
20424;BME280;10371;49.042;8.002;2023-04-20T00:39:48;99881.13;;;4.55;75.58
20424;BME280;10371;49.042;8.002;2023-04-20T00:40:49;99881.19;;;4.53;75.89
20424;BME280;10371;49.042;8.002;2023-04-20T00:41:52;99885.34;;;4.56;75.76
20424;BME280;10371;49.042;8.002;2023-04-20T00:42:52;99881.94;;;4.55;75.30
20424;BME280;10371;49.042;8.002;2023-04-20T00:43:53;99883.59;;;4.56;75.42
20424;BME280;10371;49.042;8.002;2023-04-20T00:44:53;99877.38;;;4.60;75.54
20424;BME280;10371;49.042;8.002;2023-04-20T00:45:54;99881.59;;;4.61;75.44
20424;BME280;10371;49.042;8.002;2023-04-20T00:46:54;99881.34;;;4.66;75.02
20424;BME280;10371;49.042;8.002;2023-04-20T00:47:56;99867.28;;;4.72;74.46
20424;BME280;10371;49.042;8.002;2023-04-20T00:48:56;99867.75;;;4.78;74.53
20424;BME280;10371;49.042;8.002;2023-04-20T00:49:57;99866.00;;;4.79;74.46
20424;BME280;10371;49.042;8.002;2023-04-20T00:50:57;99866.69;;;4.82;74.22
20424;BME280;10371;49.042;8.002;2023-04-20T00:51:58;99875.25;;;4.83;73.93
20424;BME280;10371;49.042;8.002;2023-04-20T00:53:00;99867.34;;;4.86;73.76
20424;BME280;10371;49.042;8.002;2023-04-20T00:54:01;99866.06;;;4.93;73.64
20424;BME280;10371;49.042;8.002;2023-04-20T00:55:02;99867.75;;;4.94;73.48
20424;BME280;10371;49.042;8.002;2023-04-20T00:56:03;99859.00;;;4.97;73.14
20424;BME280;10371;49.042;8.002;2023-04-20T00:57:03;99860.47;;;5.01;72.83
20424;BME280;10371;49.042;8.002;2023-04-20T00:58:05;99864.91;;;4.99;73.26
20424;BME280;10371;49.042;8.002;2023-04-20T00:59:06;99854.91;;;4.92;73.23
20424;BME280;10371;49.042;8.002;2023-04-20T01:00:07;99860.91;;;4.93;73.39
20424;BME280;10371;49.042;8.002;2023-04-20T01:01:10;99850.50;;;4.95;73.06
20424;BME280;10371;49.042;8.002;2023-04-20T01:02:10;99853.84;;;4.97;73.19
20424;BME280;10371;49.042;8.002;2023-04-20T01:03:11;99851.16;;;4.98;72.97
20424;BME280;10371;49.042;8.002;2023-04-20T01:04:11;99850.34;;;4.98;72.84
20424;BME280;10371;49.042;8.002;2023-04-20T01:05:11;99858.06;;;4.98;73.13
20424;BME280;10371;49.042;8.002;2023-04-20T01:06:13;99852.16;;;4.96;73.15
20424;BME280;10371;49.042;8.002;2023-04-20T01:07:13;99853.09;;;4.95;73.02
20424;BME280;10371;49.042;8.002;2023-04-20T01:08:13;99847.19;;;4.92;73.38
20424;BME280;10371;49.042;8.002;2023-04-20T01:09:14;99841.38;;;4.89;73.44
20424;BME280;10371;49.042;8.002;2023-04-20T01:10:14;99837.78;;;4.91;73.14
20424;BME280;10371;49.042;8.002;2023-04-20T01:11:15;99837.88;;;4.90;73.17
20424;BME280;10371;49.042;8.002;2023-04-20T01:12:15;99844.78;;;4.89;73.46
20424;BME280;10371;49.042;8.002;2023-04-20T01:13:15;99830.41;;;4.85;73.31
20424;BME280;10371;49.042;8.002;2023-04-20T01:14:16;99835.63;;;4.84;73.39
20424;BME280;10371;49.042;8.002;2023-04-20T01:15:16;99837.56;;;4.80;73.96
20424;BME280;10371;49.042;8.002;2023-04-20T01:16:16;99834.16;;;4.80;73.83
20424;BME280;10371;49.042;8.002;2023-04-20T01:17:17;99832.59;;;4.77;73.67
20424;BME280;10371;49.042;8.002;2023-04-20T01:18:17;99834.59;;;4.72;73.98
20424;BME280;10371;49.042;8.002;2023-04-20T01:19:18;99829.59;;;4.69;74.10
20424;BME280;10371;49.042;8.002;2023-04-20T01:20:20;99835.91;;;4.79;74.40
20424;BME280;10371;49.042;8.002;2023-04-20T01:21:22;99839.22;;;4.81;74.50
20424;BME280;10371;49.042;8.002;2023-04-20T01:22:22;99834.00;;;4.83;74.17
20424;BME280;10371;49.042;8.002;2023-04-20T01:23:23;99826.78;;;4.74;74.67
20424;BME280;10371;49.042;8.002;2023-04-20T01:24:23;99826.69;;;4.75;74.68
20424;BME280;10371;49.042;8.002;2023-04-20T01:25:23;99831.84;;;4.75;74.92
20424;BME280;10371;49.042;8.002;2023-04-20T01:26:25;99825.22;;;4.71;74.98
20424;BME280;10371;49.042;8.002;2023-04-20T01:27:26;99834.00;;;4.67;74.61
20424;BME280;10371;49.042;8.002;2023-04-20T01:28:26;99820.53;;;4.62;75.00
20424;BME280;10371;49.042;8.002;2023-04-20T01:29:26;99824.13;;;4.59;75.08
20424;BME280;10371;49.042;8.002;2023-04-20T01:30:27;99822.53;;;4.57;74.88
20424;BME280;10371;49.042;8.002;2023-04-20T01:31:28;99815.91;;;4.53;74.88
20424;BME280;10371;49.042;8.002;2023-04-20T01:32:28;99828.78;;;4.53;75.17
20424;BME280;10371;49.042;8.002;2023-04-20T01:33:28;99816.09;;;4.50;75.39
20424;BME280;10371;49.042;8.002;2023-04-20T01:34:29;99817.91;;;4.47;75.22
20424;BME280;10371;49.042;8.002;2023-04-20T01:35:29;99811.44;;;4.40;75.37
20424;BME280;10371;49.042;8.002;2023-04-20T01:36:30;99815.50;;;4.44;75.39
20424;BME280;10371;49.042;8.002;2023-04-20T01:37:31;99812.16;;;4.42;75.51
20424;BME280;10371;49.042;8.002;2023-04-20T01:38:32;99807.84;;;4.43;75.65
20424;BME280;10371;49.042;8.002;2023-04-20T01:39:36;99809.75;;;4.39;75.54
20424;BME280;10371;49.042;8.002;2023-04-20T01:40:38;99812.69;;;4.33;76.13
20424;BME280;10371;49.042;8.002;2023-04-20T01:41:38;99808.19;;;4.37;75.88
20424;BME280;10371;49.042;8.002;2023-04-20T01:42:39;99813.16;;;4.40;75.53
20424;BME280;10371;49.042;8.002;2023-04-20T01:43:40;99807.38;;;4.36;75.91
20424;BME280;10371;49.042;8.002;2023-04-20T01:44:40;99797.69;;;4.40;75.57
20424;BME280;10371;49.042;8.002;2023-04-20T01:45:40;99799.28;;;4.42;75.62
20424;BME280;10371;49.042;8.002;2023-04-20T01:46:41;99803.25;;;4.48;75.80
20424;BME280;10371;49.042;8.002;2023-04-20T01:47:41;99798.78;;;4.52;75.67
20424;BME280;10371;49.042;8.002;2023-04-20T01:48:41;99801.69;;;4.45;75.52
20424;BME280;10371;49.042;8.002;2023-04-20T01:49:42;99798.56;;;4.40;75.38
20424;BME280;10371;49.042;8.002;2023-04-20T01:50:42;99799.72;;;4.35;75.77
20424;BME280;10371;49.042;8.002;2023-04-20T01:51:42;99797.22;;;4.33;75.92
20424;BME280;10371;49.042;8.002;2023-04-20T01:52:42;99798.97;;;4.33;76.28
20424;BME280;10371;49.042;8.002;2023-04-20T01:53:43;99793.25;;;4.28;76.35
20424;BME280;10371;49.042;8.002;2023-04-20T01:54:43;99789.91;;;4.25;76.14
20424;BME280;10371;49.042;8.002;2023-04-20T01:55:44;99787.50;;;4.22;76.23
20424;BME280;10371;49.042;8.002;2023-04-20T01:56:44;99796.00;;;4.24;76.28
20424;BME280;10371;49.042;8.002;2023-04-20T01:57:44;99795.06;;;4.25;76.59
20424;BME280;10371;49.042;8.002;2023-04-20T01:58:44;99793.47;;;4.23;76.38
20424;BME280;10371;49.042;8.002;2023-04-20T01:59:45;99792.66;;;4.22;76.83
20424;BME280;10371;49.042;8.002;2023-04-20T02:00:45;99786.69;;;4.22;76.59
20424;BME280;10371;49.042;8.002;2023-04-20T02:01:45;99791.06;;;4.20;76.61
20424;BME280;10371;49.042;8.002;2023-04-20T02:02:46;99793.75;;;4.18;76.63
20424;BME280;10371;49.042;8.002;2023-04-20T02:03:47;99787.03;;;4.16;76.53
20424;BME280;10371;49.042;8.002;2023-04-20T02:04:48;99786.91;;;4.17;76.51
20424;BME280;10371;49.042;8.002;2023-04-20T02:05:48;99791.25;;;4.17;76.66
20424;BME280;10371;49.042;8.002;2023-04-20T02:06:48;99790.25;;;4.19;76.57
20424;BME280;10371;49.042;8.002;2023-04-20T02:07:48;99786.03;;;4.18;76.55
20424;BME280;10371;49.042;8.002;2023-04-20T02:08:49;99788.59;;;4.18;76.71
20424;BME280;10371;49.042;8.002;2023-04-20T02:09:49;99786.84;;;4.19;77.71
20424;BME280;10371;49.042;8.002;2023-04-20T02:10:49;99791.25;;;4.17;77.26
20424;BME280;10371;49.042;8.002;2023-04-20T02:11:49;99787.91;;;4.15;77.09
20424;BME280;10371;49.042;8.002;2023-04-20T02:12:50;99787.91;;;4.15;77.44
20424;BME280;10371;49.042;8.002;2023-04-20T02:13:50;99786.75;;;4.20;77.56
20424;BME280;10371;49.042;8.002;2023-04-20T02:14:51;99782.53;;;4.19;77.60
20424;BME280;10371;49.042;8.002;2023-04-20T02:15:51;99792.75;;;4.21;77.00
20424;BME280;10371;49.042;8.002;2023-04-20T02:16:51;99782.44;;;4.21;77.18
20424;BME280;10371;49.042;8.002;2023-04-20T02:17:52;99784.75;;;4.25;77.40
20424;BME280;10371;49.042;8.002;2023-04-20T02:18:52;99781.53;;;4.22;77.45
20424;BME280;10371;49.042;8.002;2023-04-20T02:19:53;99777.19;;;4.22;77.87
20424;BME280;10371;49.042;8.002;2023-04-20T02:20:53;99778.59;;;4.28;78.71
20424;BME280;10371;49.042;8.002;2023-04-20T02:21:54;99781.59;;;4.20;78.92
20424;BME280;10371;49.042;8.002;2023-04-20T02:22:54;99781.13;;;4.14;79.30
20424;BME280;10371;49.042;8.002;2023-04-20T02:23:54;99777.47;;;4.02;79.61
20424;BME280;10371;49.042;8.002;2023-04-20T02:24:54;99775.22;;;3.96;79.75
20424;BME280;10371;49.042;8.002;2023-04-20T02:25:55;99777.28;;;3.89;79.27
20424;BME280;10371;49.042;8.002;2023-04-20T02:26:56;99775.97;;;3.82;79.19
20424;BME280;10371;49.042;8.002;2023-04-20T02:27:56;99777.19;;;3.75;79.19
20424;BME280;10371;49.042;8.002;2023-04-20T02:28:56;99774.78;;;3.72;79.21
20424;BME280;10371;49.042;8.002;2023-04-20T02:29:58;99772.22;;;3.72;79.08
20424;BME280;10371;49.042;8.002;2023-04-20T02:30:58;99765.31;;;3.72;79.36
20424;BME280;10371;49.042;8.002;2023-04-20T02:31:58;99771.22;;;3.74;79.13
20424;BME280;10371;49.042;8.002;2023-04-20T02:32:58;99763.41;;;3.76;79.07
20424;BME280;10371;49.042;8.002;2023-04-20T02:33:59;99771.13;;;3.76;78.95
20424;BME280;10371;49.042;8.002;2023-04-20T02:34:59;99770.22;;;3.77;78.97
20424;BME280;10371;49.042;8.002;2023-04-20T02:35:59;99777.13;;;3.76;79.24
20424;BME280;10371;49.042;8.002;2023-04-20T02:37:00;99762.50;;;3.77;79.12
20424;BME280;10371;49.042;8.002;2023-04-20T02:38:00;99765.84;;;3.79;78.98
20424;BME280;10371;49.042;8.002;2023-04-20T02:39:01;99766.66;;;3.79;79.06
20424;BME280;10371;49.042;8.002;2023-04-20T02:40:02;99755.69;;;3.76;78.89
20424;BME280;10371;49.042;8.002;2023-04-20T02:41:04;99757.25;;;3.78;78.91
20424;BME280;10371;49.042;8.002;2023-04-20T02:42:04;99759.00;;;3.78;79.12
20424;BME280;10371;49.042;8.002;2023-04-20T02:43:05;99761.69;;;3.76;79.02
20424;BME280;10371;49.042;8.002;2023-04-20T02:44:05;99755.69;;;3.76;78.89
20424;BME280;10371;49.042;8.002;2023-04-20T02:45:06;99753.78;;;3.79;78.96
20424;BME280;10371;49.042;8.002;2023-04-20T02:46:06;99749.63;;;3.77;78.84
20424;BME280;10371;49.042;8.002;2023-04-20T02:47:07;99750.38;;;3.79;78.78
20424;BME280;10371;49.042;8.002;2023-04-20T02:48:07;99747.66;;;3.82;78.75
20424;BME280;10371;49.042;8.002;2023-04-20T02:49:07;99751.03;;;3.83;78.76
20424;BME280;10371;49.042;8.002;2023-04-20T02:50:08;99750.38;;;3.79;78.53
20424;BME280;10371;49.042;8.002;2023-04-20T02:51:08;99745.25;;;3.79;78.63
20424;BME280;10371;49.042;8.002;2023-04-20T02:52:08;99744.47;;;3.77;78.82
20424;BME280;10371;49.042;8.002;2023-04-20T02:53:09;99747.06;;;3.77;79.10
20424;BME280;10371;49.042;8.002;2023-04-20T02:54:09;99736.94;;;3.74;79.08
20424;BME280;10371;49.042;8.002;2023-04-20T02:55:09;99742.16;;;3.72;79.35
20424;BME280;10371;49.042;8.002;2023-04-20T02:56:10;99734.53;;;3.71;79.37
20424;BME280;10371;49.042;8.002;2023-04-20T02:57:10;99742.25;;;3.71;79.34
20424;BME280;10371;49.042;8.002;2023-04-20T02:58:10;99733.78;;;3.69;79.12
20424;BME280;10371;49.042;8.002;2023-04-20T02:59:11;99742.31;;;3.69;79.45
20424;BME280;10371;49.042;8.002;2023-04-20T03:00:11;99738.00;;;3.70;79.29
20424;BME280;10371;49.042;8.002;2023-04-20T03:01:12;99737.25;;;3.68;79.60
20424;BME280;10371;49.042;8.002;2023-04-20T03:02:13;99737.09;;;3.71;79.39
20424;BME280;10371;49.042;8.002;2023-04-20T03:03:13;99734.44;;;3.72;79.06
20424;BME280;10371;49.042;8.002;2023-04-20T03:04:13;99742.06;;;3.74;79.05
20424;BME280;10371;49.042;8.002;2023-04-20T03:05:14;99735.25;;;3.73;79.18
20424;BME280;10371;49.042;8.002;2023-04-20T03:06:14;99736.75;;;3.77;79.07
20424;BME280;10371;49.042;8.002;2023-04-20T03:07:15;99731.63;;;3.77;79.03
20424;BME280;10371;49.042;8.002;2023-04-20T03:08:15;99732.50;;;3.76;79.18
20424;BME280;10371;49.042;8.002;2023-04-20T03:09:16;99735.06;;;3.76;78.96
20424;BME280;10371;49.042;8.002;2023-04-20T03:10:16;99727.34;;;3.76;79.17
20424;BME280;10371;49.042;8.002;2023-04-20T03:11:16;99734.25;;;3.75;79.11
20424;BME280;10371;49.042;8.002;2023-04-20T03:12:16;99729.19;;;3.74;79.47
20424;BME280;10371;49.042;8.002;2023-04-20T03:13:21;99730.84;;;3.75;79.29
20424;BME280;10371;49.042;8.002;2023-04-20T03:14:21;99730.63;;;3.79;79.24
20424;BME280;10371;49.042;8.002;2023-04-20T03:15:21;99731.19;;;3.85;79.07
20424;BME280;10371;49.042;8.002;2023-04-20T03:16:22;99726.72;;;3.88;78.86
20424;BME280;10371;49.042;8.002;2023-04-20T03:17:22;99727.47;;;3.90;78.91
20424;BME280;10371;49.042;8.002;2023-04-20T03:18:22;99729.94;;;3.92;78.80
20424;BME280;10371;49.042;8.002;2023-04-20T03:19:23;99726.53;;;3.91;79.10
20424;BME280;10371;49.042;8.002;2023-04-20T03:20:23;99722.97;;;3.94;78.93
20424;BME280;10371;49.042;8.002;2023-04-20T03:21:23;99725.44;;;3.95;79.15
20424;BME280;10371;49.042;8.002;2023-04-20T03:22:24;99723.78;;;3.94;79.19
20424;BME280;10371;49.042;8.002;2023-04-20T03:23:24;99724.44;;;3.98;78.67
20424;BME280;10371;49.042;8.002;2023-04-20T03:24:25;99723.56;;;3.99;79.07
20424;BME280;10371;49.042;8.002;2023-04-20T03:25:25;99726.13;;;3.99;78.85
20424;BME280;10371;49.042;8.002;2023-04-20T03:26:26;99719.22;;;3.99;79.12
20424;BME280;10371;49.042;8.002;2023-04-20T03:27:26;99722.72;;;3.98;78.95
20424;BME280;10371;49.042;8.002;2023-04-20T03:28:26;99710.75;;;3.97;78.86
20424;BME280;10371;49.042;8.002;2023-04-20T03:29:27;99718.47;;;3.97;79.16
20424;BME280;10371;49.042;8.002;2023-04-20T03:30:27;99717.72;;;3.95;79.21
20424;BME280;10371;49.042;8.002;2023-04-20T03:31:27;99713.31;;;3.97;79.32
20424;BME280;10371;49.042;8.002;2023-04-20T03:32:28;99717.56;;;3.98;79.46
20424;BME280;10371;49.042;8.002;2023-04-20T03:33:28;99713.31;;;3.97;79.53
20424;BME280;10371;49.042;8.002;2023-04-20T03:34:28;99715.81;;;3.99;79.49
20424;BME280;10371;49.042;8.002;2023-04-20T03:35:28;99716.47;;;4.02;79.72
20424;BME280;10371;49.042;8.002;2023-04-20T03:36:29;99717.13;;;4.06;79.25
20424;BME280;10371;49.042;8.002;2023-04-20T03:37:29;99717.13;;;4.06;79.29
20424;BME280;10371;49.042;8.002;2023-04-20T03:38:29;99716.31;;;4.06;79.62
20424;BME280;10371;49.042;8.002;2023-04-20T03:39:30;99706.81;;;4.06;79.52
20424;BME280;10371;49.042;8.002;2023-04-20T03:40:30;99710.16;;;4.08;79.57
20424;BME280;10371;49.042;8.002;2023-04-20T03:41:30;99706.66;;;4.09;79.24
20424;BME280;10371;49.042;8.002;2023-04-20T03:42:31;99697.28;;;4.08;79.55
20424;BME280;10371;49.042;8.002;2023-04-20T03:43:31;99702.44;;;4.08;79.89
20424;BME280;10371;49.042;8.002;2023-04-20T03:44:31;99711.56;;;4.14;79.72
20424;BME280;10371;49.042;8.002;2023-04-20T03:45:31;99709.91;;;4.13;79.84
20424;BME280;10371;49.042;8.002;2023-04-20T03:46:32;99715.72;;;4.16;79.84
20424;BME280;10371;49.042;8.002;2023-04-20T03:47:32;99709.81;;;4.14;79.97
20424;BME280;10371;49.042;8.002;2023-04-20T03:48:33;99704.81;;;4.11;80.27
20424;BME280;10371;49.042;8.002;2023-04-20T03:49:33;99698.94;;;4.09;80.37
20424;BME280;10371;49.042;8.002;2023-04-20T03:50:34;99701.06;;;4.17;80.26
20424;BME280;10371;49.042;8.002;2023-04-20T03:51:34;99701.84;;;4.19;80.34
20424;BME280;10371;49.042;8.002;2023-04-20T03:52:34;99699.25;;;4.19;80.25
20424;BME280;10371;49.042;8.002;2023-04-20T03:53:35;99689.41;;;4.25;80.11
20424;BME280;10371;49.042;8.002;2023-04-20T03:54:35;99692.94;;;4.24;79.89
20424;BME280;10371;49.042;8.002;2023-04-20T03:55:35;99694.56;;;4.25;80.01
20424;BME280;10371;49.042;8.002;2023-04-20T03:56:36;99692.00;;;4.25;80.11
20424;BME280;10371;49.042;8.002;2023-04-20T03:57:37;99690.09;;;4.29;80.25
20424;BME280;10371;49.042;8.002;2023-04-20T03:58:37;99699.47;;;4.30;79.85
20424;BME280;10371;49.042;8.002;2023-04-20T03:59:37;99692.56;;;4.31;79.75
20424;BME280;10371;49.042;8.002;2023-04-20T04:00:38;99687.41;;;4.31;80.21
20424;BME280;10371;49.042;8.002;2023-04-20T04:01:38;99700.13;;;4.34;79.96
20424;BME280;10371;49.042;8.002;2023-04-20T04:02:38;99699.94;;;4.37;79.93
20424;BME280;10371;49.042;8.002;2023-04-20T04:03:39;99699.75;;;4.40;79.97
20424;BME280;10371;49.042;8.002;2023-04-20T04:04:39;99701.53;;;4.39;79.44
20424;BME280;10371;49.042;8.002;2023-04-20T04:05:40;99691.78;;;4.44;79.37
20424;BME280;10371;49.042;8.002;2023-04-20T04:06:40;99692.53;;;4.46;79.49
20424;BME280;10371;49.042;8.002;2023-04-20T04:07:40;99697.88;;;4.43;80.28
20424;BME280;10371;49.042;8.002;2023-04-20T04:08:41;99696.00;;;4.45;80.05
20424;BME280;10371;49.042;8.002;2023-04-20T04:09:41;99696.94;;;4.44;79.98
20424;BME280;10371;49.042;8.002;2023-04-20T04:10:42;99694.28;;;4.46;79.83
20424;BME280;10371;49.042;8.002;2023-04-20T04:11:42;99690.84;;;4.45;80.39
20424;BME280;10371;49.042;8.002;2023-04-20T04:12:42;99696.94;;;4.44;80.63
20424;BME280;10371;49.042;8.002;2023-04-20T04:13:42;99691.59;;;4.47;80.33
20424;BME280;10371;49.042;8.002;2023-04-20T04:14:43;99689.66;;;4.51;80.31
20424;BME280;10371;49.042;8.002;2023-04-20T04:15:43;99694.00;;;4.51;80.40
20424;BME280;10371;49.042;8.002;2023-04-20T04:16:43;99694.94;;;4.50;80.46
20424;BME280;10371;49.042;8.002;2023-04-20T04:17:44;99690.59;;;4.50;80.79
20424;BME280;10371;49.042;8.002;2023-04-20T04:18:45;99698.97;;;4.54;80.92
20424;BME280;10371;49.042;8.002;2023-04-20T04:19:45;99689.59;;;4.53;80.84
20424;BME280;10371;49.042;8.002;2023-04-20T04:20:45;99695.41;;;4.56;80.53
20424;BME280;10371;49.042;8.002;2023-04-20T04:21:46;99698.16;;;4.53;80.71
20424;BME280;10371;49.042;8.002;2023-04-20T04:22:46;99693.66;;;4.57;80.71
20424;BME280;10371;49.042;8.002;2023-04-20T04:23:47;99694.56;;;4.56;80.74
20424;BME280;10371;49.042;8.002;2023-04-20T04:24:47;99688.78;;;4.52;80.82
20424;BME280;10371;49.042;8.002;2023-04-20T04:25:47;99699.66;;;4.57;81.02
20424;BME280;10371;49.042;8.002;2023-04-20T04:26:48;99693.03;;;4.67;81.00
20424;BME280;10371;49.042;8.002;2023-04-20T04:27:49;99690.06;;;4.59;80.94
20424;BME280;10371;49.042;8.002;2023-04-20T04:28:50;99692.63;;;4.59;81.09
20424;BME280;10371;49.042;8.002;2023-04-20T04:29:50;99698.34;;;4.64;80.95
20424;BME280;10371;49.042;8.002;2023-04-20T04:30:51;99696.78;;;4.62;81.25
20424;BME280;10371;49.042;8.002;2023-04-20T04:31:52;99692.75;;;4.58;81.53
20424;BME280;10371;49.042;8.002;2023-04-20T04:32:52;99690.06;;;4.59;81.19
20424;BME280;10371;49.042;8.002;2023-04-20T04:33:52;99691.81;;;4.59;81.21
20424;BME280;10371;49.042;8.002;2023-04-20T04:34:52;99690.16;;;4.58;81.37
20424;BME280;10371;49.042;8.002;2023-04-20T04:35:54;99696.16;;;4.58;81.43
20424;BME280;10371;49.042;8.002;2023-04-20T04:36:54;99692.19;;;4.67;81.68
20424;BME280;10371;49.042;8.002;2023-04-20T04:37:55;99689.88;;;4.62;81.59
20424;BME280;10371;49.042;8.002;2023-04-20T04:38:55;99688.03;;;4.64;81.55
20424;BME280;10371;49.042;8.002;2023-04-20T04:39:56;99682.63;;;4.69;81.54
20424;BME280;10371;49.042;8.002;2023-04-20T04:40:57;99682.72;;;4.67;81.89
20424;BME280;10371;49.042;8.002;2023-04-20T04:41:57;99687.03;;;4.67;81.40
20424;BME280;10371;49.042;8.002;2023-04-20T04:42:57;99681.88;;;4.67;81.39
20424;BME280;10371;49.042;8.002;2023-04-20T04:43:59;99680.41;;;4.63;81.57
20424;BME280;10371;49.042;8.002;2023-04-20T04:45:00;99679.88;;;4.72;81.69
20424;BME280;10371;49.042;8.002;2023-04-20T04:46:07;99679.88;;;4.72;81.51
20424;BME280;10371;49.042;8.002;2023-04-20T04:47:08;99678.22;;;4.71;81.52
20424;BME280;10371;49.042;8.002;2023-04-20T04:48:11;99676.94;;;4.78;81.59
20424;BME280;10371;49.042;8.002;2023-04-20T04:49:11;99684.28;;;4.84;81.44
20424;BME280;10371;49.042;8.002;2023-04-20T04:50:11;99676.47;;;4.86;81.13
20424;BME280;10371;49.042;8.002;2023-04-20T04:51:12;99682.09;;;4.92;80.81
20424;BME280;10371;49.042;8.002;2023-04-20T04:52:12;99683.97;;;4.90;81.03
20424;BME280;10371;49.042;8.002;2023-04-20T04:53:12;99675.47;;;4.88;80.92
20424;BME280;10371;49.042;8.002;2023-04-20T04:54:12;99676.22;;;4.90;81.08
20424;BME280;10371;49.042;8.002;2023-04-20T04:55:13;99675.28;;;4.91;81.14
20424;BME280;10371;49.042;8.002;2023-04-20T04:56:13;99673.63;;;4.90;80.94
20424;BME280;10371;49.042;8.002;2023-04-20T04:57:13;99683.97;;;4.90;81.15
20424;BME280;10371;49.042;8.002;2023-04-20T04:58:14;99677.13;;;4.89;81.75
20424;BME280;10371;49.042;8.002;2023-04-20T04:59:14;99675.19;;;4.93;81.52
20424;BME280;10371;49.042;8.002;2023-04-20T05:00:15;99681.38;;;4.90;81.55
20424;BME280;10371;49.042;8.002;2023-04-20T05:01:15;99678.88;;;4.89;81.52
20424;BME280;10371;49.042;8.002;2023-04-20T05:02:15;99681.44;;;4.89;81.34
20424;BME280;10371;49.042;8.002;2023-04-20T05:03:15;99680.63;;;4.88;81.58
20424;BME280;10371;49.042;8.002;2023-04-20T05:04:16;99679.63;;;4.91;81.48
20424;BME280;10371;49.042;8.002;2023-04-20T05:05:16;99676.03;;;4.93;81.63
20424;BME280;10371;49.042;8.002;2023-04-20T05:06:17;99677.69;;;4.95;81.27
20424;BME280;10371;49.042;8.002;2023-04-20T05:07:17;99675.09;;;4.95;81.29
20424;BME280;10371;49.042;8.002;2023-04-20T05:08:17;99679.06;;;5.00;81.02
20424;BME280;10371;49.042;8.002;2023-04-20T05:09:18;99680.38;;;5.07;81.17
20424;BME280;10371;49.042;8.002;2023-04-20T05:10:18;99682.56;;;5.13;80.49
20424;BME280;10371;49.042;8.002;2023-04-20T05:11:19;99684.78;;;5.20;80.38
20424;BME280;10371;49.042;8.002;2023-04-20T05:12:19;99683.22;;;5.17;79.92
20424;BME280;10371;49.042;8.002;2023-04-20T05:13:19;99691.31;;;5.25;80.17
20424;BME280;10371;49.042;8.002;2023-04-20T05:14:20;99684.31;;;5.13;79.95
20424;BME280;10371;49.042;8.002;2023-04-20T05:15:20;99682.66;;;5.12;80.11
20424;BME280;10371;49.042;8.002;2023-04-20T05:16:20;99690.13;;;5.17;80.34
20424;BME280;10371;49.042;8.002;2023-04-20T05:17:20;99689.50;;;5.13;80.03
20424;BME280;10371;49.042;8.002;2023-04-20T05:18:21;99685.22;;;5.12;80.23
20424;BME280;10371;49.042;8.002;2023-04-20T05:19:21;99695.09;;;5.20;80.25
20424;BME280;10371;49.042;8.002;2023-04-20T05:20:21;99696.47;;;5.25;80.34
20424;BME280;10371;49.042;8.002;2023-04-20T05:21:21;99688.47;;;5.15;79.87
20424;BME280;10371;49.042;8.002;2023-04-20T05:22:21;99688.75;;;5.11;79.89
20424;BME280;10371;49.042;8.002;2023-04-20T05:23:22;99682.94;;;5.22;80.20
20424;BME280;10371;49.042;8.002;2023-04-20T05:24:22;99690.94;;;5.31;79.44